Aérodrome :
LOGIN :

S'inscrire | Disclaimer

   EN    FR    IT 

 










Légende :    VFR   VFR Marginal   IFR   IFR Intensif   IFR Très Intensif
Visi : 
Plafond : 
>= 8 km
>= 3000ft
5 à 8 km
1000 à 3000 ft
1500m à 5 km
500 à 1000 ft
800 à 1500m
200 à 500 ft
< 800m
< 200 ft
Symboles :   Orages  Brouillard  Fortes neiges  Fortes précipitations  Vent > 20 kt
SIGMETs :   Divers  Orages  Givrage  Turbulence  Onde Orograph.  Cendres Volcan.







- Altitude de l'aérodrome : 74 ft
- Code IATA : EIN


EHEH - Eindhoven

DERNIER METAR :
  • 261625Z AUTO 28010KT 220V340 9999 FEW043/// SCT084/// BKN095/// 13/04 Q1016 BLU 26012KT 9999 FEW045 SCT070 TEMPO FEW040CB SCT045

METARs EXPIRÉS :
  • 261555Z AUTO 27011KT 230V330 9999 FEW049 SCT089 BKN097 13/03 Q1016 BLU 26011G21KT 9999 FEW040 BKN045 TEMPO FEW035CB SCT040
  • 261525Z AUTO 26011KT 210V340 9999 FEW044CB SCT047 BKN080 15/04 Q1016 BLU 26011G21KT 9999 FEW040 BKN045 TEMPO FEW035CB SCT040
  • 261516Z AUTO 27012KT 220V320 9999 -DZRA FEW036 FEW041CB BKN047 BKN054 13/03 Q1016 BLU 26014G24KT 9999 FEW040 BKN045 TEMPO FEW035CB SCT040
  • 261455Z AUTO 27012KT 220V300 9999 FEW045 BKN240 14/03 Q1016 BLU 26014G24KT 9999 FEW040 BKN045 TEMPO FEW035CB SCT040
  • 261425Z AUTO 27014KT 230V330 9999 SCT045/// 15/04 Q1016 BLU 26014G24KT 9999 FEW040 BKN045 TEMPO FEW035CB SCT040
  • 261355Z AUTO 26014KT 220V320 9999 BKN045 BKN052 OVC057 14/03 Q1016 BLU 26014G24KT 9999 FEW040 BKN045 TEMPO FEW035CB SCT040

TAF TAF EHEH
Valide du 26 à 12h jusqu'au 27 à 18h UTC


261158Z 2612/2718 25015G25KT 9999 SCT020 SCT040
PROB30
TEMPO 2612/2617 FEW015CB BKN018
BECMG 2618/2621 20005KT
Pas de NOTAMs connus pour ce terrain.



MET'MAP, la Météo Aéronautique d'un coup d'oeil ! - Copyright ORBIFLY Décembre 2007 - Disclaimer

ORBIFLY MET'MAP TEAM :

Programmation & Développement : Alexandra Zaïnal
Conception & Développement : Baudouin d'Aumeries
Co-Programmation & Développement : Marc-Olivier Méhu
Soutien technique & logistique : Manuel Goepfert

Contact : metmap@orbifly.com




SOURCES & CREDITS :

   NOAA